createdAt,value
2023-11-13T00:01:59.609Z,100517.19
2023-11-13T00:04:23.467Z,100526.72
2023-11-13T00:06:48.674Z,100533.03
2023-11-13T00:09:12.968Z,100530.97
2023-11-13T00:11:36.815Z,100544.03
2023-11-13T00:14:00.654Z,100540.00
2023-11-13T00:16:24.858Z,100541.97
2023-11-13T00:18:48.561Z,100540.38
2023-11-13T00:21:12.640Z,100532.44
2023-11-13T00:23:38.646Z,100541.63
2023-11-13T00:26:02.481Z,100537.34
2023-11-13T00:28:27.212Z,100549.16
2023-11-13T00:30:51.454Z,100553.38
2023-11-13T00:33:15.147Z,100553.84
2023-11-13T00:35:39.034Z,100554.63
2023-11-13T00:38:02.696Z,100546.13
2023-11-13T00:40:28.968Z,100546.19
2023-11-13T00:42:52.690Z,100554.44
2023-11-13T00:45:16.444Z,100555.91
2023-11-13T00:47:40.457Z,100557.09
2023-11-13T00:50:04.540Z,100556.06
2023-11-13T00:52:28.259Z,100558.09
2023-11-13T00:54:50.972Z,100545.78
2023-11-13T00:57:16.639Z,100545.31
2023-11-13T00:59:40.335Z,100543.94
2023-11-13T01:02:04.319Z,100536.44
2023-11-13T01:04:28.083Z,100544.13
2023-11-13T01:06:56.387Z,100539.59
2023-11-13T01:09:20.126Z,100540.09
2023-11-13T01:11:43.912Z,100543.44
2023-11-13T01:14:11.291Z,100538.03
2023-11-13T01:16:35.198Z,100530.22
2023-11-13T01:18:59.075Z,100528.09
2023-11-13T01:21:23.464Z,100520.72
2023-11-13T01:23:46.202Z,100518.91
2023-11-13T01:26:09.957Z,100516.13
2023-11-13T01:28:33.834Z,100516.41
2023-11-13T01:30:58.990Z,100527.47
2023-11-13T01:33:23.185Z,100528.88
2023-11-13T01:35:47.070Z,100526.22
2023-11-13T01:38:10.764Z,100533.53
2023-11-13T01:40:34.401Z,100528.13
2023-11-13T01:42:58.218Z,100535.88
2023-11-13T01:45:21.915Z,100536.00
2023-11-13T01:47:47.625Z,100528.69
2023-11-13T01:50:12.310Z,100522.09
2023-11-13T01:52:37.360Z,100522.16
2023-11-13T01:55:02.121Z,100518.63
2023-11-13T01:57:26.216Z,100518.91
2023-11-13T01:59:51.287Z,100516.00
2023-11-13T02:02:15.062Z,100509.63
2023-11-13T02:04:40.594Z,100509.97
2023-11-13T02:07:05.822Z,100508.91
2023-11-13T02:09:29.818Z,100518.56
2023-11-13T02:11:53.808Z,100522.16
2023-11-13T02:14:17.672Z,100518.13
2023-11-13T02:16:41.462Z,100509.88
2023-11-13T02:19:05.249Z,100509.13
2023-11-13T02:21:30.390Z,100512.56
2023-11-13T02:23:56.248Z,100511.06
2023-11-13T02:26:20.723Z,100508.78
2023-11-13T02:28:44.706Z,100514.78
2023-11-13T02:31:08.485Z,100525.09
2023-11-13T02:33:32.189Z,100526.81
2023-11-13T02:35:55.880Z,100523.91
2023-11-13T02:38:19.523Z,100525.22
2023-11-13T02:40:44.636Z,100533.22
2023-11-13T02:43:08.260Z,100533.63
2023-11-13T02:45:31.913Z,100539.03
2023-11-13T02:47:55.730Z,100535.94
2023-11-13T02:50:19.955Z,100535.94
2023-11-13T02:52:43.747Z,100531.06
2023-11-13T02:55:08.163Z,100527.75
2023-11-13T02:57:33.388Z,100521.88
2023-11-13T02:59:57.170Z,100521.16
2023-11-13T03:02:21.197Z,100516.72
2023-11-13T03:04:44.853Z,100518.78
2023-11-13T03:07:08.484Z,100509.34
2023-11-13T03:09:32.155Z,100518.66
2023-11-13T03:11:55.864Z,100521.00
2023-11-13T03:14:21.117Z,100518.00
2023-11-13T03:16:44.777Z,100517.00
2023-11-13T03:19:08.572Z,100518.25
2023-11-13T03:21:32.970Z,100517.03
2023-11-13T03:23:56.675Z,100521.63
2023-11-13T03:26:20.357Z,100519.50
2023-11-13T03:28:45.082Z,100517.03
2023-11-13T03:31:11.096Z,100522.72
2023-11-13T03:33:35.054Z,100522.50
2023-11-13T03:35:58.679Z,100529.75
2023-11-13T03:38:22.884Z,100537.66
2023-11-13T03:40:46.511Z,100541.94
2023-11-13T03:43:10.194Z,100534.69
2023-11-13T03:45:35.154Z,100533.84
2023-11-13T03:48:00.350Z,100531.19
2023-11-13T03:50:24.120Z,100533.72
2023-11-13T03:52:47.758Z,100524.44
2023-11-13T03:55:11.859Z,100521.78
2023-11-13T03:57:35.525Z,100517.34
2023-11-13T03:59:59.196Z,100515.03
2023-11-13T04:02:23.925Z,100518.66
2023-11-13T04:04:49.091Z,100516.53
2023-11-13T04:07:13.647Z,100519.91
2023-11-13T04:09:37.701Z,100527.41
2023-11-13T04:12:01.853Z,100529.91
2023-11-13T04:14:25.491Z,100533.44
2023-11-13T04:16:49.201Z,100537.06
2023-11-13T04:19:13.930Z,100533.03
2023-11-13T04:21:38.975Z,100534.38
2023-11-13T04:24:02.799Z,100540.72
2023-11-13T04:26:27.409Z,100532.78
2023-11-13T04:28:51.014Z,100528.09
2023-11-13T04:31:18.072Z,100527.91
2023-11-13T04:33:42.265Z,100519.44
2023-11-13T04:36:07.137Z,100522.09
2023-11-13T04:38:32.218Z,100519.06
2023-11-13T04:40:56.001Z,100525.16
2023-11-13T04:43:19.651Z,100532.72
2023-11-13T04:45:43.390Z,100532.28
2023-11-13T04:48:07.784Z,100546.94
2023-11-13T04:50:31.469Z,100550.34
2023-11-13T04:52:55.102Z,100547.03
2023-11-13T04:55:20.410Z,100541.59
2023-11-13T04:57:44.027Z,100549.72
2023-11-13T05:00:11.762Z,100552.41
2023-11-13T05:02:38.448Z,100549.97
2023-11-13T05:05:02.172Z,100547.38
2023-11-13T05:07:26.917Z,100545.91
2023-11-13T05:09:50.665Z,100544.94
2023-11-13T05:12:16.357Z,100553.78
2023-11-13T05:14:42.799Z,100550.03
2023-11-13T05:17:06.632Z,100556.34
2023-11-13T05:19:30.559Z,100561.28
2023-11-13T05:21:54.232Z,100562.34
2023-11-13T05:24:18.016Z,100563.72
2023-11-13T05:26:41.639Z,100554.22
2023-11-13T05:29:07.014Z,100559.53
2023-11-13T05:31:30.693Z,100560.41
2023-11-13T05:33:54.435Z,100553.34
2023-11-13T05:36:18.433Z,100547.34
2023-11-13T05:38:44.470Z,100554.13
2023-11-13T05:41:08.201Z,100547.69
2023-11-13T05:43:32.298Z,100544.31
2023-11-13T05:45:57.336Z,100551.56
2023-11-13T05:48:21.253Z,100539.91
2023-11-13T05:50:45.016Z,100546.38
2023-11-13T05:53:08.708Z,100543.72
2023-11-13T05:55:33.658Z,100548.75
2023-11-13T05:57:57.482Z,100542.59
2023-11-13T06:00:21.862Z,100546.38
2023-11-13T06:02:47.139Z,100547.34
2023-11-13T06:05:11.243Z,100554.50
2023-11-13T06:07:34.925Z,100555.69
2023-11-13T06:09:58.700Z,100563.38
2023-11-13T06:12:22.402Z,100557.81
2023-11-13T06:14:46.180Z,100565.50
2023-11-13T06:17:10.270Z,100578.66
2023-11-13T06:19:35.866Z,100582.81
2023-11-13T06:21:59.988Z,100574.38
2023-11-13T06:24:23.602Z,100571.16
2023-11-13T06:26:47.220Z,100578.41
2023-11-13T06:29:11.454Z,100575.56
2023-11-13T06:31:35.765Z,100589.31
2023-11-13T06:33:59.543Z,100578.44
2023-11-13T06:36:24.595Z,100574.50
2023-11-13T06:38:49.026Z,100575.53
2023-11-13T06:41:13.186Z,100568.41
2023-11-13T06:43:36.850Z,100563.72
2023-11-13T06:46:01.314Z,100568.06
2023-11-13T06:48:25.006Z,100553.47
2023-11-13T06:50:48.659Z,100559.44
2023-11-13T06:53:13.660Z,100567.66
2023-11-13T06:55:37.347Z,100564.47
2023-11-13T06:58:01.792Z,100567.44
2023-11-13T07:00:26.275Z,100571.16
2023-11-13T07:02:51.357Z,100564.13
2023-11-13T07:05:16.887Z,100558.88
2023-11-13T07:07:40.688Z,100548.84
2023-11-13T07:10:06.057Z,100549.69
2023-11-13T07:12:33.837Z,100557.91
2023-11-13T07:14:58.926Z,100555.47
2023-11-13T07:17:22.571Z,100553.31
2023-11-13T07:19:46.221Z,100560.59
2023-11-13T07:22:09.978Z,100561.22
2023-11-13T07:24:37.606Z,100551.13
2023-11-13T07:27:02.710Z,100552.28
2023-11-13T07:29:26.369Z,100543.63
2023-11-13T07:31:50.031Z,100553.47
2023-11-13T07:34:14.198Z,100539.13
2023-11-13T07:36:37.787Z,100536.47
2023-11-13T07:39:01.441Z,100542.34
2023-11-13T07:41:25.043Z,100542.59
2023-11-13T07:43:50.863Z,100546.75
2023-11-13T07:46:15.183Z,100550.28
2023-11-13T07:48:41.943Z,100547.28
2023-11-13T07:51:07.116Z,100551.97
2023-11-13T07:53:30.873Z,100543.53
2023-11-13T07:55:55.660Z,100549.41
2023-11-13T07:58:19.599Z,100543.59
2023-11-13T08:00:44.627Z,100540.47
2023-11-13T08:03:08.329Z,100545.72
2023-11-13T08:05:31.962Z,100532.72
2023-11-13T08:07:55.745Z,100531.94
2023-11-13T08:10:19.628Z,100526.81
2023-11-13T08:12:45.781Z,100525.63
2023-11-13T08:15:10.950Z,100521.06
2023-11-13T08:17:36.704Z,100524.25
2023-11-13T08:20:00.601Z,100522.44
2023-11-13T08:22:24.279Z,100520.88
2023-11-13T08:24:47.921Z,100525.38
2023-11-13T08:27:11.540Z,100527.69
2023-11-13T08:29:36.675Z,100523.56
2023-11-13T08:32:00.507Z,100536.19
2023-11-13T08:34:25.822Z,100531.38
2023-11-13T08:36:49.542Z,100541.97
2023-11-13T08:39:18.198Z,100546.72
2023-11-13T08:41:41.829Z,100532.09
2023-11-13T08:44:11.221Z,100543.31
2023-11-13T08:46:35.332Z,100536.94
2023-11-13T08:49:03.270Z,100536.50
2023-11-13T08:51:29.378Z,100533.66
2023-11-13T08:53:53.127Z,100532.75
2023-11-13T08:56:17.246Z,100531.34
2023-11-13T08:58:41.173Z,100528.59
2023-11-13T09:01:08.573Z,100526.59
2023-11-13T09:03:32.460Z,100525.03
2023-11-13T09:05:56.928Z,100517.72
2023-11-13T09:08:22.009Z,100521.31
2023-11-13T09:10:46.466Z,100521.25
2023-11-13T09:13:10.426Z,100522.44
2023-11-13T09:15:36.169Z,100524.66
2023-11-13T09:18:03.003Z,100520.13
2023-11-13T09:20:28.032Z,100526.22
2023-11-13T09:22:53.087Z,100523.09
2023-11-13T09:25:18.940Z,100516.88
2023-11-13T09:27:44.247Z,100517.09
2023-11-13T09:30:11.429Z,100514.41
2023-11-13T09:32:37.725Z,100511.97
2023-11-13T09:35:01.379Z,100504.41
2023-11-13T09:37:25.064Z,100498.69
2023-11-13T09:39:49.684Z,100493.06
2023-11-13T09:42:19.312Z,100494.50
2023-11-13T09:44:53.849Z,100488.75
2023-11-13T09:47:24.079Z,100490.66
2023-11-13T09:49:53.147Z,100493.34
2023-11-13T09:52:19.816Z,100490.50
2023-11-13T09:54:45.090Z,100487.78
2023-11-13T09:57:14.666Z,100479.13
2023-11-13T09:59:39.913Z,100476.28
2023-11-13T10:02:09.169Z,100476.50
2023-11-13T10:04:33.214Z,100473.00
2023-11-13T10:07:01.124Z,100479.00
2023-11-13T10:09:27.960Z,100485.41
2023-11-13T10:11:52.509Z,100473.56
2023-11-13T10:14:19.063Z,100464.06
2023-11-13T10:16:55.258Z,100470.72
2023-11-13T10:19:19.441Z,100459.63
2023-11-13T10:21:43.072Z,100462.34
2023-11-13T10:24:23.968Z,100460.25
2023-11-13T10:26:56.633Z,100443.53
2023-11-13T10:29:22.426Z,100447.63
2023-11-13T10:31:47.553Z,100444.88
2023-11-13T10:34:12.638Z,100435.06
2023-11-13T10:36:36.356Z,100429.22
2023-11-13T10:38:59.929Z,100428.78
2023-11-13T10:41:26.707Z,100427.44
2023-11-13T10:43:50.394Z,100420.38
2023-11-13T10:46:30.918Z,100414.25
2023-11-13T10:48:58.181Z,100404.03
2023-11-13T10:51:25.337Z,100396.91
2023-11-13T10:53:50.721Z,100393.31
2023-11-13T10:56:15.332Z,100399.66
2023-11-13T10:58:39.627Z,100396.09
2023-11-13T11:01:06.657Z,100393.41
2023-11-13T11:03:33.876Z,100391.91
2023-11-13T11:06:07.073Z,100384.97
2023-11-13T11:08:32.556Z,100388.47
2023-11-13T11:10:56.628Z,100374.56
2023-11-13T11:13:22.155Z,100376.53
2023-11-13T11:16:22.904Z,100369.22
2023-11-13T11:18:52.229Z,100363.38
2023-11-13T11:21:44.652Z,100359.88
2023-11-13T11:24:14.019Z,100351.69
2023-11-13T11:26:59.531Z,100364.78
2023-11-13T11:29:34.696Z,100367.63
2023-11-13T11:31:59.453Z,100361.72
2023-11-13T11:34:25.967Z,100362.75
2023-11-13T11:36:57.681Z,100367.94
2023-11-13T11:39:23.828Z,100352.19
2023-11-13T11:41:53.260Z,100343.88
2023-11-13T11:44:19.645Z,100350.34
2023-11-13T11:46:47.729Z,100346.09
2023-11-13T11:49:26.017Z,100344.22
2023-11-13T11:51:51.181Z,100337.41
2023-11-13T11:54:14.905Z,100320.13
2023-11-13T11:56:38.624Z,100331.28
2023-11-13T11:59:01.289Z,100310.06
2023-11-13T12:01:25.636Z,100307.22
2023-11-13T12:03:49.422Z,100311.53
2023-11-13T12:06:13.245Z,100301.75
2023-11-13T12:08:39.012Z,100292.69
2023-11-13T12:11:04.156Z,100282.97
2023-11-13T12:13:29.002Z,100293.16
2023-11-13T12:15:56.954Z,100281.09
2023-11-13T12:18:20.683Z,100279.38
2023-11-13T12:20:44.530Z,100270.94
2023-11-13T12:23:16.754Z,100262.13
2023-11-13T12:25:41.991Z,100270.56
2023-11-13T12:28:09.120Z,100263.44
2023-11-13T12:30:33.810Z,100255.38
2023-11-13T12:32:58.227Z,100247.78
2023-11-13T12:35:23.634Z,100247.97
2023-11-13T12:37:48.081Z,100250.69
2023-11-13T12:40:14.838Z,100237.75
2023-11-13T12:42:40.770Z,100231.41
2023-11-13T12:45:09.937Z,100219.88
2023-11-13T12:47:33.981Z,100211.47
2023-11-13T12:49:59.305Z,100207.81
2023-11-13T12:52:23.227Z,100200.53
2023-11-13T12:54:51.032Z,100199.25
2023-11-13T12:57:19.813Z,100195.34
2023-11-13T12:59:45.579Z,100187.34
2023-11-13T13:02:10.877Z,100180.88
2023-11-13T13:04:35.087Z,100179.16
2023-11-13T13:07:02.300Z,100169.69
2023-11-13T13:09:29.481Z,100161.69
2023-11-13T13:11:54.986Z,100153.84
2023-11-13T13:14:19.387Z,100146.94
2023-11-13T13:16:44.849Z,100139.31
2023-11-13T13:19:10.664Z,100141.63
2023-11-13T13:21:34.357Z,100138.38
2023-11-13T13:23:58.160Z,100122.00
2023-11-13T13:26:22.002Z,100111.91
2023-11-13T13:28:46.484Z,100111.72
2023-11-13T13:31:13.403Z,100105.09
2023-11-13T13:33:40.866Z,100099.84
2023-11-13T13:36:05.923Z,100093.09
2023-11-13T13:38:29.964Z,100090.94
2023-11-13T13:40:53.621Z,100098.44
2023-11-13T13:43:17.349Z,100082.91
2023-11-13T13:45:44.027Z,100080.50
2023-11-13T13:48:10.844Z,100087.22
2023-11-13T13:50:36.035Z,100077.69
2023-11-13T13:53:02.431Z,100062.19
2023-11-13T13:55:29.392Z,100065.31
2023-11-13T13:57:53.739Z,100065.03
2023-11-13T14:00:33.699Z,100051.50
2023-11-13T14:03:03.167Z,100046.25
2023-11-13T14:05:26.807Z,100039.25
2023-11-13T14:07:51.826Z,100031.75
2023-11-13T14:10:16.645Z,100010.31
2023-11-13T14:12:40.339Z,99998.69
2023-11-13T14:15:04.617Z,100006.06
2023-11-13T14:17:28.429Z,100007.75
2023-11-13T14:19:52.119Z,100002.25
2023-11-13T14:22:18.584Z,100005.03
2023-11-13T14:24:43.661Z,100000.66
2023-11-13T14:27:09.224Z,99997.88
2023-11-13T14:29:34.891Z,99988.84
2023-11-13T14:31:58.601Z,99999.84
2023-11-13T14:34:22.561Z,99977.00
2023-11-13T14:36:46.540Z,99966.53
2023-11-13T14:39:10.338Z,99962.03
2023-11-13T14:41:35.672Z,99952.13
2023-11-13T14:43:59.318Z,99939.97
2023-11-13T14:46:23.773Z,99946.75
2023-11-13T14:48:47.571Z,99949.94
2023-11-13T14:51:11.304Z,99937.75
2023-11-13T14:53:37.348Z,99941.97
2023-11-13T14:56:04.022Z,99948.16
2023-11-13T14:58:29.197Z,99942.91
2023-11-13T15:00:52.921Z,99943.72
2023-11-13T15:03:16.604Z,99949.13
2023-11-13T15:05:40.638Z,99948.31
2023-11-13T15:08:05.183Z,99938.88
2023-11-13T15:10:29.010Z,99924.59
2023-11-13T15:12:52.599Z,99910.06
2023-11-13T15:15:19.802Z,99903.41
2023-11-13T15:17:46.149Z,99896.44
2023-11-13T15:20:15.885Z,99887.47
2023-11-13T15:23:01.079Z,99875.16
2023-11-13T15:25:26.996Z,99862.47
2023-11-13T15:27:51.541Z,99858.66
2023-11-13T15:30:19.805Z,99853.75
2023-11-13T15:32:46.230Z,99847.97
2023-11-13T15:35:10.681Z,99837.50
2023-11-13T15:37:34.512Z,99821.72
2023-11-13T15:39:58.199Z,99804.09
2023-11-13T15:42:21.834Z,99801.09
2023-11-13T15:44:45.582Z,99788.38
2023-11-13T15:47:10.661Z,99774.28
2023-11-13T15:49:34.888Z,99750.31
2023-11-13T15:51:58.842Z,99750.88
2023-11-13T15:54:22.580Z,99744.94
2023-11-13T15:56:46.181Z,99748.19
2023-11-13T15:59:10.428Z,99730.72
2023-11-13T16:01:34.231Z,99726.34
2023-11-13T16:03:59.457Z,99720.41
2023-11-13T16:06:23.107Z,99713.06
2023-11-13T16:08:46.793Z,99713.34
2023-11-13T16:11:10.682Z,99720.44
2023-11-13T16:13:34.404Z,99716.31
2023-11-13T16:15:59.055Z,99705.19
2023-11-13T16:18:22.900Z,99711.66
2023-11-13T16:20:48.110Z,99709.44
2023-11-13T16:23:12.723Z,99707.72
2023-11-13T16:25:37.803Z,99687.41
2023-11-13T16:28:01.572Z,99674.28
2023-11-13T16:30:31.954Z,99671.88
2023-11-13T16:32:55.712Z,99674.44
2023-11-13T16:35:19.556Z,99668.19
2023-11-13T16:37:44.724Z,99667.34
2023-11-13T16:40:10.652Z,99664.31
2023-11-13T16:42:34.547Z,99663.13
2023-11-13T16:44:58.244Z,99665.97
2023-11-13T16:47:22.054Z,99645.78
2023-11-13T16:49:46.210Z,99638.06
2023-11-13T16:52:12.147Z,99628.47
2023-11-13T16:54:37.469Z,99625.09
2023-11-13T16:57:01.241Z,99642.59
2023-11-13T16:59:24.857Z,99636.09
2023-11-13T17:01:49.260Z,99635.00
2023-11-13T17:04:13.140Z,99632.00
2023-11-13T17:06:36.749Z,99626.28
2023-11-13T17:09:00.468Z,99629.78
2023-11-13T17:11:25.587Z,99638.81
2023-11-13T17:13:51.154Z,99630.72
2023-11-13T17:16:15.430Z,99609.22
2023-11-13T17:18:39.845Z,99587.66
2023-11-13T17:21:04.704Z,99550.91
2023-11-13T17:23:28.371Z,99524.13
2023-11-13T17:25:53.410Z,99524.69
2023-11-13T17:28:19.783Z,99521.19
2023-11-13T17:30:44.330Z,99519.66
2023-11-13T17:33:08.019Z,99494.03
2023-11-13T17:35:31.701Z,99476.72
2023-11-13T17:37:55.356Z,99488.25
2023-11-13T17:40:20.321Z,99476.63
2023-11-13T17:42:44.021Z,99486.53
2023-11-13T17:45:10.054Z,99462.88
2023-11-13T17:47:33.861Z,99425.75
2023-11-13T17:49:57.784Z,99426.56
2023-11-13T17:52:21.505Z,99451.38
2023-11-13T17:54:45.286Z,99448.69
2023-11-13T17:57:13.647Z,99434.47
2023-11-13T17:59:37.502Z,99421.47
2023-11-13T18:02:02.750Z,99427.53
2023-11-13T18:04:26.635Z,99429.03
2023-11-13T18:06:50.257Z,99403.78
2023-11-13T18:09:14.213Z,99379.25
2023-11-13T18:11:37.842Z,99382.50
2023-11-13T18:14:01.872Z,99374.22
2023-11-13T18:16:25.633Z,99366.16
2023-11-13T18:18:51.080Z,99361.13
2023-11-13T18:21:14.731Z,99354.06
2023-11-13T18:23:38.438Z,99359.69
2023-11-13T18:26:02.371Z,99372.63
2023-11-13T18:28:27.639Z,99357.47
2023-11-13T18:30:53.029Z,99339.97
2023-11-13T18:33:16.734Z,99340.69
2023-11-13T18:35:41.767Z,99331.88
2023-11-13T18:38:05.477Z,99327.31
2023-11-13T18:40:29.233Z,99335.06
2023-11-13T18:42:53.574Z,99311.16
2023-11-13T18:45:18.394Z,99325.84
2023-11-13T18:47:43.921Z,99323.34
2023-11-13T18:50:09.228Z,99325.03
2023-11-13T18:52:34.342Z,99331.97
2023-11-13T18:54:59.900Z,99335.84
2023-11-13T18:57:24.175Z,99320.50
2023-11-13T18:59:47.865Z,99298.38
2023-11-13T19:02:13.394Z,99304.22
2023-11-13T19:04:38.459Z,99296.97
2023-11-13T19:07:02.257Z,99312.75
2023-11-13T19:09:28.589Z,99317.72
2023-11-13T19:11:52.234Z,99331.53
2023-11-13T19:14:17.488Z,99330.59
2023-11-13T19:16:42.384Z,99339.63
2023-11-13T19:19:06.057Z,99335.19
2023-11-13T19:21:29.801Z,99331.75
2023-11-13T19:23:55.536Z,99320.50
2023-11-13T19:26:20.684Z,99313.47
2023-11-13T19:28:44.740Z,99314.31
2023-11-13T19:31:08.454Z,99230.06
2023-11-13T19:33:32.373Z,99191.19
2023-11-13T19:35:56.332Z,99214.63
2023-11-13T19:38:20.158Z,99223.72
2023-11-13T19:40:43.998Z,99224.56
2023-11-13T19:43:09.095Z,99215.81
2023-11-13T19:45:33.587Z,99203.00
2023-11-13T19:47:57.325Z,99203.44
2023-11-13T19:50:21.505Z,99195.09
2023-11-13T19:52:48.002Z,99202.13
2023-11-13T19:55:12.647Z,99209.72
2023-11-13T19:57:36.598Z,99189.00
2023-11-13T20:00:02.148Z,99194.56
2023-11-13T20:02:27.552Z,99180.84
2023-11-13T20:04:52.378Z,99203.78
2023-11-13T20:07:16.161Z,99199.00
2023-11-13T20:09:41.053Z,99195.81
2023-11-13T20:14:29.333Z,99219.72
2023-11-13T20:16:54.469Z,99238.34
2023-11-13T20:19:18.286Z,99235.13
2023-11-13T20:21:43.729Z,99235.13
2023-11-13T20:24:09.579Z,99232.75
2023-11-13T20:26:35.876Z,99236.56
2023-11-13T20:28:59.625Z,99219.81
2023-11-13T20:31:23.466Z,99227.91
2023-11-13T20:33:48.773Z,99229.66
2023-11-13T20:36:12.752Z,99228.25
2023-11-13T20:38:36.462Z,99238.41
2023-11-13T20:41:00.166Z,99225.31
2023-11-13T20:43:23.992Z,99231.00
2023-11-13T20:45:48.285Z,99238.59
2023-11-13T20:48:12.437Z,99254.53
2023-11-13T20:50:38.611Z,99248.78
2023-11-13T20:53:02.354Z,99246.69
2023-11-13T20:55:26.045Z,99252.06
2023-11-13T20:57:49.714Z,99256.44
2023-11-13T21:00:16.824Z,99248.59
2023-11-13T21:02:40.545Z,99241.44
2023-11-13T21:05:04.837Z,99237.47
2023-11-13T21:07:30.159Z,99249.00
2023-11-13T21:09:53.855Z,99257.47
2023-11-13T21:12:18.625Z,99239.56
2023-11-13T21:14:42.347Z,99236.81
2023-11-13T21:17:06.291Z,99227.69
2023-11-13T21:19:29.977Z,99228.84
2023-11-13T21:21:53.749Z,99222.22
2023-11-13T21:24:18.883Z,99235.66
2023-11-13T21:26:42.794Z,99240.28
2023-11-13T21:29:09.299Z,99235.66
2023-11-13T21:31:33.247Z,99242.72
2023-11-13T21:33:56.981Z,99262.53
2023-11-13T21:36:23.404Z,99252.81
2023-11-13T21:38:47.080Z,99253.38
2023-11-13T21:41:12.143Z,99258.41
2023-11-13T21:43:36.131Z,99259.09
2023-11-13T21:45:59.879Z,99254.75
2023-11-13T21:48:23.541Z,99254.69
2023-11-13T21:50:47.301Z,99256.59
2023-11-13T21:53:10.956Z,99255.38
2023-11-13T21:55:35.559Z,99261.44
2023-11-13T21:58:02.128Z,99257.41
2023-11-13T22:00:26.114Z,99262.47
2023-11-13T22:02:50.050Z,99271.69
2023-11-13T22:05:14.013Z,99276.19
2023-11-13T22:07:37.978Z,99272.78
2023-11-13T22:10:01.766Z,99282.09
2023-11-13T22:12:25.476Z,99282.84
2023-11-13T22:14:53.259Z,99284.13
2023-11-13T22:17:17.708Z,99288.06
2023-11-13T22:19:42.950Z,99289.31
2023-11-13T22:22:07.378Z,99293.38
2023-11-13T22:24:31.142Z,99302.00
2023-11-13T22:26:55.386Z,99305.03
2023-11-13T22:29:19.137Z,99307.00
2023-11-13T22:31:44.430Z,99307.66
2023-11-13T22:34:08.909Z,99311.47
2023-11-13T22:36:32.564Z,99315.09
2023-11-13T22:38:56.287Z,99315.44
2023-11-13T22:41:20.101Z,99317.22
2023-11-13T22:43:44.187Z,99316.53
2023-11-13T22:46:07.974Z,99316.81
2023-11-13T22:48:33.207Z,99313.38
2023-11-13T22:50:56.898Z,99310.66
2023-11-13T22:53:20.610Z,99310.94
2023-11-13T22:55:44.266Z,99314.97
2023-11-13T22:58:08.089Z,99312.88
2023-11-13T23:00:38.771Z,99318.53
2023-11-13T23:03:02.965Z,99322.28
2023-11-13T23:05:28.597Z,99317.47
2023-11-13T23:07:52.609Z,99320.56
2023-11-13T23:10:16.756Z,99330.53
2023-11-13T23:12:41.326Z,99329.59
2023-11-13T23:15:05.860Z,99329.38
2023-11-13T23:17:29.783Z,99329.91
2023-11-13T23:19:53.559Z,99326.81
2023-11-13T23:22:18.680Z,99329.06
2023-11-13T23:24:43.040Z,99326.16
2023-11-13T23:27:07.460Z,99325.47
2023-11-13T23:29:31.022Z,99331.94
2023-11-13T23:31:55.282Z,99328.75
2023-11-13T23:34:19.461Z,99327.69
2023-11-13T23:36:43.110Z,99318.53
2023-11-13T23:39:09.390Z,99321.69
2023-11-13T23:41:33.110Z,99321.50
2023-11-13T23:43:56.829Z,99324.06
2023-11-13T23:46:21.940Z,99336.06
2023-11-13T23:48:46.351Z,99328.38
2023-11-13T23:51:10.127Z,99332.44
2023-11-13T23:53:33.742Z,99335.09
2023-11-13T23:55:58.885Z,99341.22
2023-11-13T23:58:22.579Z,99342.69
